Time;durP1;ratioP1;P1;durP2;ratioP2;P2;SDS_P1;SDS_P2;PMS_P1;PMS_P2;Temp;Humidity;BMP_temperature;BMP_pressure;BME280_temperature;BME280_humidity;BME280_pressure;Samples;Min_cycle;Max_cycle;Signal;HPM_P1;HPM_P2
2022/03/14 00:01:41;;;;;;;44.83;14.07;;;7.10;11.10;;;;;;4979940;28;20576;-60
2022/03/14 00:04:09;;;;;;;46.30;13.83;;;7.20;10.60;;;;;;4984203;28;20456;-59
2022/03/14 00:06:36;;;;;;;45.40;14.13;;;7.20;10.50;;;;;;4983112;28;20492;-59
2022/03/14 00:09:07;;;;;;;47.27;14.57;;;7.20;10.40;;;;;;4984059;28;20520;-59
2022/03/14 00:11:38;;;;;;;47.37;14.40;;;7.30;10.30;;;;;;4982822;28;20547;-60
2022/03/14 00:14:07;;;;;;;45.40;13.70;;;7.30;10.10;;;;;;4982380;28;20825;-60
2022/03/14 00:16:41;;;;;;;48.43;15.00;;;7.30;10.30;;;;;;4982059;28;20476;-59
2022/03/14 00:19:09;;;;;;;46.17;14.53;;;7.30;10.40;;;;;;4982069;28;20587;-59
2022/03/14 00:21:38;;;;;;;47.63;14.83;;;7.30;10.50;;;;;;4976276;28;20477;-61
2022/03/14 00:24:07;;;;;;;44.47;13.07;;;7.40;10.60;;;;;;4982371;28;20472;-59
2022/03/14 00:26:34;;;;;;;45.93;13.40;;;7.40;11.00;;;;;;4976256;28;20489;-60
2022/03/14 00:29:01;;;;;;;48.70;14.43;;;7.40;11.00;;;;;;4989786;28;20466;-59
2022/03/14 00:31:28;;;;;;;47.20;14.37;;;7.50;11.20;;;;;;4978411;28;20476;-59
2022/03/14 00:33:54;;;;;;;51.53;15.77;;;7.50;11.20;;;;;;4981847;28;20469;-60
2022/03/14 00:36:25;;;;;;;43.60;14.13;;;7.60;11.00;;;;;;4981725;28;20579;-60
2022/03/14 00:38:53;;;;;;;47.00;15.90;;;7.60;11.40;;;;;;4982647;28;20465;-60
2022/03/14 00:41:19;;;;;;;46.20;14.63;;;7.70;13.10;;;;;;4983191;28;21025;-59
2022/03/14 00:43:47;;;;;;;49.70;15.93;;;7.70;13.10;;;;;;4981601;28;20484;-60
2022/03/14 00:46:16;;;;;;;47.80;15.23;;;7.70;13.10;;;;;;4981627;28;21091;-59
2022/03/14 00:48:44;;;;;;;48.90;17.00;;;7.70;13.00;;;;;;4980118;28;20462;-60
2022/03/14 00:51:11;;;;;;;47.23;14.47;;;7.80;12.80;;;;;;4987556;28;20468;-61
2022/03/14 00:53:39;;;;;;;48.03;16.37;;;7.80;12.30;;;;;;4972392;28;20469;-60
2022/03/14 00:56:06;;;;;;;47.60;15.63;;;7.80;12.20;;;;;;4979777;28;20460;-60
2022/03/14 00:58:34;;;;;;;47.73;17.63;;;7.80;12.20;;;;;;4978965;28;20528;-59
2022/03/14 01:01:01;;;;;;;51.00;17.53;;;7.70;12.30;;;;;;4976145;28;20478;-60
2022/03/14 01:03:28;;;;;;;49.40;18.27;;;7.70;12.80;;;;;;4976460;28;20492;-59
2022/03/14 01:05:55;;;;;;;51.43;17.80;;;7.70;12.90;;;;;;4980587;28;20473;-60
2022/03/14 01:08:21;;;;;;;52.40;18.37;;;7.70;13.00;;;;;;4980980;28;20485;-60
2022/03/14 01:10:49;;;;;;;48.87;17.33;;;7.70;13.10;;;;;;4981276;28;20474;-60
2022/03/14 01:13:16;;;;;;;51.53;17.80;;;7.60;13.60;;;;;;4977618;28;21019;-60
2022/03/14 01:15:44;;;;;;;52.73;17.80;;;7.60;13.50;;;;;;4979349;28;20467;-61
2022/03/14 01:18:10;;;;;;;48.80;16.70;;;7.60;13.50;;;;;;4981287;28;20869;-59
2022/03/14 01:20:37;;;;;;;51.23;17.07;;;7.60;13.80;;;;;;4983460;28;20460;-59
2022/03/14 01:23:04;;;;;;;48.77;15.60;;;7.60;13.80;;;;;;4989261;28;20480;-59
2022/03/14 01:25:31;;;;;;;47.13;15.60;;;7.60;13.60;;;;;;4979558;28;20468;-60
2022/03/14 01:27:59;;;;;;;47.73;15.00;;;7.60;13.30;;;;;;4980341;28;20492;-60
2022/03/14 01:30:25;;;;;;;46.30;15.20;;;7.60;13.10;;;;;;4981458;28;20499;-60
2022/03/14 01:32:52;;;;;;;48.40;15.43;;;7.60;13.10;;;;;;4986312;28;20460;-60
2022/03/14 01:35:19;;;;;;;49.40;15.30;;;7.60;13.00;;;;;;4979369;28;20462;-60
2022/03/14 01:37:48;;;;;;;47.00;14.70;;;7.60;13.00;;;;;;4980808;28;20484;-60
2022/03/14 01:40:15;;;;;;;47.30;15.80;;;7.60;13.00;;;;;;4984691;28;20492;-60
2022/03/14 01:42:42;;;;;;;49.00;16.20;;;7.60;13.10;;;;;;4980760;28;21175;-61
2022/03/14 01:45:13;;;;;;;44.97;15.27;;;7.70;13.70;;;;;;4975358;28;20472;-60
2022/03/14 01:47:42;;;;;;;47.93;15.40;;;7.70;14.10;;;;;;4977821;28;20488;-60
2022/03/14 01:50:10;;;;;;;53.23;17.27;;;7.70;14.40;;;;;;4976771;28;20469;-60
2022/03/14 01:52:37;;;;;;;49.97;15.30;;;7.70;14.70;;;;;;4987618;28;20476;-61
2022/03/14 01:55:04;;;;;;;47.30;15.07;;;7.60;14.80;;;;;;4985577;28;20469;-60
2022/03/14 01:57:31;;;;;;;50.60;17.13;;;7.60;15.20;;;;;;4980582;28;20489;-61
2022/03/14 01:59:59;;;;;;;48.10;16.90;;;7.60;15.40;;;;;;4979501;28;21156;-61
2022/03/14 02:02:27;;;;;;;47.40;16.23;;;7.70;15.40;;;;;;4978309;28;20487;-62
2022/03/14 02:04:54;;;;;;;47.57;14.73;;;7.70;15.10;;;;;;4991396;28;20468;-60
2022/03/14 02:07:21;;;;;;;47.77;16.00;;;7.70;14.80;;;;;;4998258;28;20486;-59
2022/03/14 02:09:48;;;;;;;44.90;14.53;;;7.70;14.40;;;;;;4982342;28;20470;-59
2022/03/14 02:12:15;;;;;;;53.00;16.30;;;7.70;14.10;;;;;;4991115;28;20463;-60
2022/03/14 02:14:42;;;;;;;48.10;16.50;;;7.70;13.90;;;;;;4979150;28;20563;-60
2022/03/14 02:17:15;;;;;;;50.63;16.53;;;7.80;13.70;;;;;;4979012;28;20484;-60
2022/03/14 02:19:43;;;;;;;52.57;16.40;;;7.80;13.40;;;;;;4983766;28;20472;-59
2022/03/14 02:22:14;;;;;;;47.73;14.83;;;7.80;13.10;;;;;;4982291;28;20481;-60
2022/03/14 02:24:41;;;;;;;49.03;16.50;;;7.80;13.40;;;;;;4996837;28;20569;-60
2022/03/14 02:27:08;;;;;;;48.77;16.73;;;7.80;13.00;;;;;;4981579;28;20492;-60
2022/03/14 02:29:35;;;;;;;47.57;15.10;;;7.80;13.30;;;;;;4984058;28;20461;-60
2022/03/14 02:32:02;;;;;;;49.13;15.83;;;7.90;13.50;;;;;;4985085;28;20500;-60
2022/03/14 02:34:28;;;;;;;49.63;16.50;;;7.90;13.70;;;;;;4991762;28;20464;-60
2022/03/14 02:36:55;;;;;;;49.60;16.47;;;7.90;13.90;;;;;;4983024;28;20491;-59
2022/03/14 02:39:24;;;;;;;47.93;16.83;;;8.00;14.00;;;;;;4985146;28;20469;-59
2022/03/14 02:41:51;;;;;;;48.80;15.50;;;8.00;14.10;;;;;;4983096;28;20483;-59
2022/03/14 02:44:18;;;;;;;51.10;15.33;;;8.00;14.40;;;;;;4987615;28;20974;-59
2022/03/14 02:46:44;;;;;;;48.20;15.20;;;8.10;14.70;;;;;;4983525;28;20496;-61
2022/03/14 02:49:12;;;;;;;52.33;18.03;;;8.10;15.40;;;;;;4984251;28;21021;-60
2022/03/14 02:51:40;;;;;;;49.77;16.30;;;8.20;15.70;;;;;;4983009;28;20476;-61
2022/03/14 02:54:08;;;;;;;53.73;15.70;;;8.20;16.10;;;;;;4989284;28;20496;-59
2022/03/14 02:56:36;;;;;;;52.70;17.20;;;8.30;16.40;;;;;;4986144;28;20484;-61
2022/03/14 02:59:04;;;;;;;48.70;15.43;;;8.30;16.70;;;;;;4981809;28;20469;-60
2022/03/14 03:01:31;;;;;;;50.90;17.60;;;8.30;16.90;;;;;;4979582;28;20613;-60
2022/03/14 03:03:57;;;;;;;49.57;17.73;;;8.40;17.60;;;;;;4978635;28;20465;-60
2022/03/14 03:06:24;;;;;;;48.40;16.10;;;8.40;17.70;;;;;;4985252;28;20870;-60
2022/03/14 03:08:52;;;;;;;49.47;17.30;;;8.50;17.80;;;;;;4982198;28;20482;-60
2022/03/14 03:11:19;;;;;;;51.03;18.30;;;8.50;17.70;;;;;;4986038;28;20500;-58
2022/03/14 03:13:48;;;;;;;50.47;17.00;;;8.50;17.60;;;;;;4984590;28;21048;-59
2022/03/14 03:16:16;;;;;;;52.10;17.87;;;8.50;17.70;;;;;;4984977;28;20484;-60
2022/03/14 03:18:44;;;;;;;50.90;18.30;;;8.50;18.10;;;;;;4983649;28;20600;-59
2022/03/14 03:21:11;;;;;;;51.67;17.87;;;8.50;18.20;;;;;;4982673;28;20475;-60
2022/03/14 03:23:38;;;;;;;49.77;17.60;;;8.50;18.70;;;;;;4982006;28;20484;-60
2022/03/14 03:26:05;;;;;;;52.20;17.80;;;8.50;18.60;;;;;;4985553;28;20469;-59
2022/03/14 03:28:35;;;;;;;50.10;17.80;;;8.50;18.90;;;;;;4982335;28;20471;-60
2022/03/14 03:31:05;;;;;;;52.83;17.93;;;8.50;19.20;;;;;;4983501;28;21019;-60
2022/03/14 03:33:32;;;;;;;52.83;18.53;;;8.50;19.30;;;;;;4983523;28;20495;-62
2022/03/14 03:35:58;;;;;;;52.30;18.17;;;8.60;19.00;;;;;;4984386;28;20468;-60
2022/03/14 03:38:25;;;;;;;50.47;18.03;;;8.50;18.80;;;;;;4981421;28;20469;-60
2022/03/14 03:40:52;;;;;;;53.43;20.07;;;8.60;18.90;;;;;;4982255;28;20943;-60
2022/03/14 03:43:19;;;;;;;53.17;18.20;;;8.50;18.80;;;;;;4984992;28;20499;-60
2022/03/14 03:45:46;;;;;;;49.70;17.13;;;8.60;18.60;;;;;;4983448;28;21573;-59
2022/03/14 03:48:14;;;;;;;52.07;17.80;;;8.60;18.40;;;;;;4981953;28;20491;-60
2022/03/14 03:50:41;;;;;;;49.80;16.40;;;8.60;18.50;;;;;;4983673;28;20476;-60
2022/03/14 03:53:08;;;;;;;50.10;16.90;;;8.70;18.60;;;;;;4981601;28;20460;-60
2022/03/14 03:55:35;;;;;;;51.30;18.33;;;8.70;18.60;;;;;;4981528;28;20516;-60
2022/03/14 03:58:02;;;;;;;54.33;17.97;;;8.80;18.60;;;;;;4986241;28;20481;-61
2022/03/14 04:00:28;;;;;;;49.53;16.70;;;8.80;18.70;;;;;;4979997;28;20971;-62
2022/03/14 04:02:55;;;;;;;51.20;18.10;;;8.70;18.80;;;;;;4986651;28;20596;-60
2022/03/14 04:05:25;;;;;;;54.93;17.83;;;8.80;18.70;;;;;;4987314;28;20465;-60
2022/03/14 04:07:54;;;;;;;49.13;16.93;;;8.80;19.00;;;;;;4986579;28;20545;-62
2022/03/14 04:10:21;;;;;;;52.23;17.60;;;8.80;18.80;;;;;;4984516;28;20959;-60
2022/03/14 04:12:48;;;;;;;52.10;18.03;;;8.80;19.00;;;;;;4977770;28;20489;-60
2022/03/14 04:15:15;;;;;;;53.90;19.00;;;8.80;19.10;;;;;;4982820;28;20464;-61
2022/03/14 04:17:42;;;;;;;54.87;19.50;;;8.80;19.60;;;;;;4982332;28;20511;-60
2022/03/14 04:20:11;;;;;;;51.10;17.53;;;8.90;20.00;;;;;;4984076;28;20469;-59
2022/03/14 04:22:40;;;;;;;54.23;21.13;;;8.90;20.00;;;;;;4982844;28;20477;-62
2022/03/14 04:25:10;;;;;;;48.40;16.80;;;8.90;20.30;;;;;;4981332;28;20460;-61
2022/03/14 04:27:37;;;;;;;51.30;18.30;;;8.90;20.10;;;;;;4987931;28;20928;-62
2022/03/14 04:30:05;;;;;;;54.10;18.50;;;8.90;20.10;;;;;;4985597;28;20484;-62
2022/03/14 04:32:32;;;;;;;51.97;18.97;;;8.90;20.00;;;;;;4981501;28;20958;-61
2022/03/14 04:34:59;;;;;;;50.23;17.80;;;8.90;20.30;;;;;;4991084;28;20481;-60
2022/03/14 04:37:25;;;;;;;56.30;16.77;;;9.00;20.20;;;;;;4985159;28;20512;-60
2022/03/14 04:39:54;;;;;;;49.27;17.57;;;9.00;20.20;;;;;;4984075;28;20457;-59
2022/03/14 04:42:21;;;;;;;48.27;16.57;;;9.00;20.10;;;;;;4982563;28;20470;-60
2022/03/14 04:44:49;;;;;;;46.30;15.23;;;9.00;20.70;;;;;;4986204;28;20464;-60
2022/03/14 04:47:17;;;;;;;44.77;14.90;;;9.00;20.70;;;;;;4984021;28;20567;-60
2022/03/14 04:49:44;;;;;;;47.90;16.40;;;9.10;21.40;;;;;;4980946;28;20521;-60
2022/03/14 04:52:11;;;;;;;44.73;14.60;;;9.10;21.80;;;;;;4981245;28;20469;-57
2022/03/14 04:54:38;;;;;;;42.73;14.30;;;9.10;22.20;;;;;;4978242;28;20469;-59
2022/03/14 04:57:07;;;;;;;43.60;13.87;;;9.10;23.10;;;;;;4984498;28;20521;-58
2022/03/14 04:59:33;;;;;;;45.30;13.47;;;9.10;22.60;;;;;;4979312;28;20468;-59
2022/03/14 05:02:00;;;;;;;44.53;13.30;;;9.10;22.40;;;;;;4977423;28;20484;-59
2022/03/14 05:04:27;;;;;;;41.57;13.10;;;9.20;23.20;;;;;;4979953;28;20997;-59
2022/03/14 05:06:53;;;;;;;43.43;15.10;;;9.20;23.00;;;;;;5001526;23;20518;-60
2022/03/14 05:09:20;;;;;;;40.10;12.43;;;9.20;22.90;;;;;;4996433;28;20453;-61
2022/03/14 05:11:47;;;;;;;39.70;12.90;;;9.20;24.10;;;;;;4999591;28;20479;-60
2022/03/14 05:14:15;;;;;;;42.83;13.20;;;9.20;23.80;;;;;;4999877;28;20478;-60
2022/03/14 05:16:42;;;;;;;43.27;13.27;;;9.20;23.60;;;;;;4993350;28;20471;-60
2022/03/14 05:19:09;;;;;;;41.63;12.20;;;9.20;23.50;;;;;;4994833;28;20467;-60
2022/03/14 05:21:36;;;;;;;44.97;13.10;;;9.20;23.30;;;;;;4996206;28;20482;-60
2022/03/14 05:24:02;;;;;;;40.53;11.60;;;9.20;23.50;;;;;;4997134;28;20488;-60
2022/03/14 05:26:29;;;;;;;42.20;12.57;;;9.30;24.70;;;;;;4999179;28;20465;-60
2022/03/14 05:28:57;;;;;;;41.73;12.30;;;9.30;24.60;;;;;;4997048;28;20966;-61
2022/03/14 05:31:25;;;;;;;40.83;12.03;;;9.30;24.80;;;;;;4998718;28;20479;-60
2022/03/14 05:33:52;;;;;;;40.27;12.07;;;9.30;25.00;;;;;;4998037;28;20464;-63
2022/03/14 05:36:19;;;;;;;40.63;12.40;;;9.30;25.20;;;;;;4999157;28;20461;-60
2022/03/14 05:38:46;;;;;;;41.27;11.70;;;9.30;25.20;;;;;;4998814;28;20484;-61
2022/03/14 05:41:13;;;;;;;38.90;11.50;;;9.30;25.50;;;;;;4999323;28;20465;-62
2022/03/14 05:43:40;;;;;;;38.13;10.90;;;9.30;25.80;;;;;;5000830;28;20575;-62
2022/03/14 05:46:08;;;;;;;37.07;9.30;;;9.30;26.10;;;;;;5004892;28;20476;-61
2022/03/14 05:48:36;;;;;;;36.30;10.93;;;9.30;26.30;;;;;;4998609;28;20522;-67
2022/03/14 05:51:04;;;;;;;34.73;7.40;;;9.30;26.60;;;;;;4998971;28;20470;-62
2022/03/14 05:53:31;;;;;;;33.87;5.90;;;9.40;27.10;;;;;;5000471;28;20471;-62
2022/03/14 05:55:58;;;;;;;32.10;5.50;;;9.40;27.00;;;;;;5005579;28;20464;-60
2022/03/14 05:58:25;;;;;;;33.30;6.20;;;9.40;27.80;;;;;;5006910;28;20480;-63
2022/03/14 06:00:52;;;;;;;34.10;6.30;;;9.40;27.60;;;;;;5006716;28;20479;-60
2022/03/14 06:03:21;;;;;;;31.47;4.63;;;9.40;27.30;;;;;;5008320;28;20520;-64
2022/03/14 06:05:49;;;;;;;31.97;5.03;;;9.40;27.40;;;;;;5005915;28;20970;-63
2022/03/14 06:08:16;;;;;;;30.73;4.17;;;9.40;27.40;;;;;;5006583;28;20599;-64
2022/03/14 06:10:45;;;;;;;30.80;4.23;;;9.40;27.70;;;;;;5005622;28;20459;-62
2022/03/14 06:13:13;;;;;;;30.73;4.47;;;9.40;27.70;;;;;;5009167;28;21026;-63
2022/03/14 06:15:39;;;;;;;31.70;4.80;;;9.40;27.60;;;;;;5002845;28;20470;-64
2022/03/14 06:18:06;;;;;;;30.03;3.60;;;9.50;28.00;;;;;;4996009;28;20518;-61
2022/03/14 06:20:33;;;;;;;29.90;3.50;;;9.50;28.10;;;;;;5002252;28;20486;-59
2022/03/14 06:23:01;;;;;;;30.20;3.27;;;9.50;27.90;;;;;;4999619;28;20489;-59
2022/03/14 06:25:28;;;;;;;29.20;2.63;;;9.50;27.80;;;;;;5004460;28;20465;-59
2022/03/14 06:27:55;;;;;;;29.23;2.43;;;9.60;27.90;;;;;;5002159;28;20487;-63
2022/03/14 06:30:22;;;;;;;29.47;2.70;;;9.60;27.60;;;;;;5001868;28;20464;-61
2022/03/14 06:32:50;;;;;;;30.30;2.57;;;9.70;27.60;;;;;;5000193;28;20495;-62
2022/03/14 06:35:17;;;;;;;29.17;2.60;;;9.80;27.30;;;;;;5002992;28;20474;-62
2022/03/14 06:37:45;;;;;;;29.40;3.17;;;9.80;27.50;;;;;;5003671;28;21072;-62
2022/03/14 06:40:14;;;;;;;29.33;2.97;;;10.00;26.80;;;;;;5005016;28;22159;-62
2022/03/14 06:42:48;;;;;;;29.57;2.90;;;10.20;26.40;;;;;;5002983;28;20477;-60
2022/03/14 06:45:20;;;;;;;31.00;4.43;;;10.30;25.80;;;;;;4998144;28;20468;-58
2022/03/14 06:47:47;;;;;;;29.80;3.20;;;10.40;25.40;;;;;;4996181;28;21451;-59
2022/03/14 06:50:14;;;;;;;29.47;3.03;;;10.60;25.10;;;;;;4996555;28;20475;-58
2022/03/14 06:52:42;;;;;;;29.63;3.50;;;10.90;24.40;;;;;;4995094;28;20461;-57
2022/03/14 06:55:10;;;;;;;29.50;3.20;;;11.20;23.30;;;;;;5001780;28;21156;-57
2022/03/14 06:57:38;;;;;;;30.47;3.33;;;11.60;22.40;;;;;;4998790;28;20502;-59
2022/03/14 07:00:07;;;;;;;29.60;3.07;;;12.00;21.20;;;;;;4995839;28;21026;-59
2022/03/14 07:02:35;;;;;;;29.57;2.70;;;12.40;19.90;;;;;;4999700;28;20502;-60
2022/03/14 07:05:01;;;;;;;29.03;2.73;;;12.40;18.90;;;;;;4999971;28;20552;-59
2022/03/14 07:07:28;;;;;;;29.23;2.37;;;12.30;18.70;;;;;;5002257;28;20491;-60
2022/03/14 07:09:55;;;;;;;29.03;2.20;;;12.50;19.00;;;;;;5000421;28;20463;-60
2022/03/14 07:12:22;;;;;;;29.97;3.10;;;13.00;18.40;;;;;;5002378;28;21267;-60
2022/03/14 07:14:50;;;;;;;29.90;5.00;;;13.70;17.20;;;;;;4994222;28;20476;-59
2022/03/14 07:17:17;;;;;;;28.60;2.40;;;14.30;15.70;;;;;;4997635;28;20495;-60
2022/03/14 07:19:45;;;;;;;30.10;2.40;;;15.30;14.10;;;;;;4995549;28;20584;-59
2022/03/14 07:22:17;;;;;;;29.57;2.53;;;16.60;12.00;;;;;;4997860;28;20684;-60
2022/03/14 07:24:45;;;;;;;27.77;2.30;;;18.20;9.30;;;;;;4994146;28;20609;-60
2022/03/14 07:27:12;;;;;;;28.10;2.63;;;19.80;7.50;;;;;;4998116;28;20580;-59
2022/03/14 07:29:39;;;;;;;32.40;2.33;;;21.30;5.00;;;;;;4996749;28;20469;-60
2022/03/14 07:32:08;;;;;;;27.00;2.10;;;22.60;2.40;;;;;;4995937;28;21064;-59
2022/03/14 07:34:35;;;;;;;27.00;2.20;;;23.70;1.00;;;;;;4999705;28;20459;-60
2022/03/14 07:37:02;;;;;;;27.07;2.60;;;24.80;1.00;;;;;;4993192;28;20491;-60
2022/03/14 07:39:29;;;;;;;26.87;2.50;;;26.00;1.00;;;;;;4998419;28;20477;-61
2022/03/14 07:41:56;;;;;;;27.80;2.13;;;27.10;1.00;;;;;;4996247;28;20996;-60
2022/03/14 07:44:23;;;;;;;26.17;1.80;;;28.30;1.00;;;;;;4998808;28;20904;-62
2022/03/14 07:46:50;;;;;;;25.80;1.80;;;29.40;1.00;;;;;;4998083;28;20865;-61
2022/03/14 07:49:20;;;;;;;25.50;1.60;;;30.30;1.00;;;;;;4995198;28;20507;-62
2022/03/14 07:51:47;;;;;;;25.27;1.57;;;31.10;1.00;;;;;;4997376;28;20473;-62
2022/03/14 07:54:14;;;;;;;25.17;2.00;;;31.70;1.00;;;;;;4999483;28;20843;-62
2022/03/14 07:56:41;;;;;;;24.90;1.70;;;32.40;1.00;;;;;;5000887;28;20472;-61
2022/03/14 07:59:08;;;;;;;24.83;2.23;;;33.20;1.00;;;;;;4995701;28;20543;-61
2022/03/14 08:01:34;;;;;;;24.10;1.23;;;33.80;1.00;;;;;;4994863;28;20480;-61
2022/03/14 08:04:01;;;;;;;26.83;1.80;;;34.40;1.00;;;;;;4998998;28;20502;-60
2022/03/14 08:06:29;;;;;;;24.10;1.97;;;34.90;1.00;;;;;;4994278;28;20530;-59
2022/03/14 08:09:00;;;;;;;23.53;1.43;;;35.40;1.00;;;;;;4996067;28;20551;-59
2022/03/14 08:11:30;;;;;;;23.30;1.30;;;36.00;1.00;;;;;;4996178;28;20467;-60
2022/03/14 08:13:58;;;;;;;26.03;1.40;;;36.30;1.00;;;;;;5001697;28;20459;-59
2022/03/14 08:16:25;;;;;;;23.23;1.70;;;36.80;1.00;;;;;;4995483;28;20547;-60
2022/03/14 08:18:52;;;;;;;23.17;1.60;;;37.30;1.00;;;;;;4996904;28;20476;-60
2022/03/14 08:21:18;;;;;;;22.90;1.60;;;37.70;1.00;;;;;;4988464;28;20468;-59
2022/03/14 08:23:47;;;;;;;22.70;1.57;;;38.30;1.00;;;;;;4996660;28;20493;-59
2022/03/14 08:26:15;;;;;;;22.30;1.23;;;38.60;1.00;;;;;;4994296;28;20499;-60
2022/03/14 08:28:42;;;;;;;22.50;1.40;;;39.00;1.00;;;;;;4996603;28;20579;-59
2022/03/14 08:31:10;;;;;;;22.47;1.83;;;39.40;1.00;;;;;;4993394;28;20582;-60
2022/03/14 08:33:39;;;;;;;22.03;1.50;;;39.80;1.00;;;;;;4994683;28;20561;-59
2022/03/14 08:36:07;;;;;;;21.90;1.50;;;40.00;1.00;;;;;;4994354;28;20474;-60
2022/03/14 08:38:34;;;;;;;32.60;1.93;;;40.40;1.00;;;;;;4998950;28;20475;-60
2022/03/14 08:41:02;;;;;;;21.50;1.20;;;40.60;1.00;;;;;;4997229;28;20472;-61
2022/03/14 08:43:29;;;;;;;21.30;1.20;;;40.90;1.00;;;;;;4995545;28;20460;-61
2022/03/14 08:45:56;;;;;;;21.40;1.30;;;41.30;1.00;;;;;;4996411;28;20474;-61
2022/03/14 08:48:23;;;;;;;21.40;1.33;;;41.70;1.00;;;;;;4996448;28;20480;-61
2022/03/14 08:50:50;;;;;;;21.13;1.10;;;41.80;1.00;;;;;;4999287;28;20464;-63
2022/03/14 08:53:17;;;;;;;21.10;1.10;;;41.80;1.00;;;;;;5002283;28;20482;-62
2022/03/14 08:55:43;;;;;;;21.20;1.20;;;41.20;1.00;;;;;;4996182;28;20548;-62
2022/03/14 08:58:12;;;;;;;21.70;1.37;;;41.00;1.00;;;;;;5003145;28;20488;-62
2022/03/14 09:00:38;;;;;;;21.33;1.33;;;41.20;1.00;;;;;;4999708;28;23443;-62
2022/03/14 09:03:05;;;;;;;23.17;1.23;;;41.50;1.00;;;;;;4998766;28;20476;-65
2022/03/14 09:05:33;;;;;;;21.37;1.20;;;41.60;1.00;;;;;;5003064;28;20482;-64
2022/03/14 09:08:00;;;;;;;21.57;1.80;;;41.70;1.00;;;;;;4986088;28;21078;-62
2022/03/14 09:10:27;;;;;;;22.17;2.47;;;41.80;1.00;;;;;;4980726;28;20482;-60
2022/03/14 09:12:54;;;;;;;21.33;1.80;;;41.90;1.00;;;;;;4979452;28;20474;-59
2022/03/14 09:15:23;;;;;;;21.37;1.70;;;42.20;1.00;;;;;;4984443;28;20472;-60
2022/03/14 09:17:51;;;;;;;20.80;1.20;;;42.50;1.00;;;;;;4994797;28;20503;-60
2022/03/14 09:20:19;;;;;;;21.00;1.43;;;42.80;1.00;;;;;;4999404;28;20476;-61
2022/03/14 09:22:47;;;;;;;21.47;1.20;;;43.10;1.00;;;;;;4999230;28;20464;-60
2022/03/14 09:25:14;;;;;;;20.90;1.20;;;43.40;1.00;;;;;;4998200;28;20483;-60
2022/03/14 09:27:41;;;;;;;20.60;1.30;;;43.50;1.00;;;;;;4997451;28;20493;-60
2022/03/14 09:30:10;;;;;;;20.97;1.70;;;43.70;1.00;;;;;;4995176;28;20469;-61
2022/03/14 09:32:38;;;;;;;21.93;1.93;;;43.70;1.00;;;;;;4995121;28;20521;-60
2022/03/14 09:35:06;;;;;;;20.60;1.40;;;43.80;1.00;;;;;;4998004;28;20977;-60
2022/03/14 09:37:33;;;;;;;20.40;1.30;;;44.20;1.00;;;;;;4994338;28;20490;-60
2022/03/14 09:40:00;;;;;;;20.50;1.60;;;44.30;1.00;;;;;;4993842;28;20472;-60
2022/03/14 09:42:29;;;;;;;20.57;1.50;;;44.50;1.00;;;;;;4999330;28;20472;-60
2022/03/14 09:44:58;;;;;;;20.50;1.20;;;44.60;1.00;;;;;;5003438;28;20490;-61
2022/03/14 09:47:26;;;;;;;20.40;1.30;;;44.40;1.00;;;;;;4996302;28;20484;-60
2022/03/14 09:49:57;;;;;;;20.60;1.27;;;44.30;1.00;;;;;;4991084;28;20461;-60
2022/03/14 09:52:25;;;;;;;20.60;1.43;;;44.20;1.00;;;;;;4996145;28;20997;-60
2022/03/14 09:54:52;;;;;;;23.20;1.17;;;44.30;1.00;;;;;;5007144;28;20544;-60
2022/03/14 09:57:20;;;;;;;20.67;1.53;;;44.10;1.00;;;;;;5001200;28;20972;-60
2022/03/14 09:59:48;;;;;;;20.80;1.20;;;43.90;1.00;;;;;;4998171;28;20548;-59
2022/03/14 10:02:15;;;;;;;21.20;1.60;;;43.70;1.00;;;;;;4998496;28;20484;-60
2022/03/14 10:04:42;;;;;;;20.90;1.40;;;43.70;1.00;;;;;;4998816;28;20488;-60
2022/03/14 10:07:10;;;;;;;21.30;1.60;;;43.60;1.00;;;;;;4996846;28;20502;-61
2022/03/14 10:09:37;;;;;;;22.20;1.70;;;43.60;1.00;;;;;;4994725;28;20658;-61
2022/03/14 10:12:04;;;;;;;21.00;1.70;;;43.90;1.00;;;;;;5000109;28;20462;-60
2022/03/14 10:14:31;;;;;;;20.90;1.53;;;43.80;1.00;;;;;;5003608;28;20537;-61
2022/03/14 10:17:00;;;;;;;21.33;1.50;;;43.80;1.00;;;;;;4993803;28;20479;-61
2022/03/14 10:19:34;;;;;;;20.90;1.50;;;43.70;1.00;;;;;;4999065;28;20467;-59
2022/03/14 10:22:15;;;;;;;21.00;1.37;;;43.70;1.00;;;;;;4994796;28;21200;-59
2022/03/14 10:24:44;;;;;;;21.07;1.20;;;43.30;1.00;;;;;;4998585;28;20907;-60
2022/03/14 10:27:12;;;;;;;21.30;1.60;;;43.20;1.00;;;;;;5000184;28;20496;-60
2022/03/14 10:29:39;;;;;;;20.97;1.30;;;43.40;1.00;;;;;;4997839;28;20464;-60
2022/03/14 10:32:19;;;;;;;21.37;1.77;;;43.70;1.00;;;;;;4997965;28;20471;-61
2022/03/14 10:34:52;;;;;;;21.10;1.50;;;43.90;1.00;;;;;;5002550;28;20839;-61
2022/03/14 10:37:20;;;;;;;21.47;1.40;;;43.90;1.00;;;;;;5002706;28;21189;-61
2022/03/14 10:39:47;;;;;;;21.07;1.40;;;43.90;1.00;;;;;;4996951;28;20464;-61
2022/03/14 10:42:15;;;;;;;21.80;2.23;;;42.70;1.00;;;;;;5000680;28;20479;-61
2022/03/14 10:44:44;;;;;;;22.00;1.63;;;40.00;1.00;;;;;;5000589;28;20494;-61
2022/03/14 10:47:13;;;;;;;24.43;2.27;;;39.40;1.00;;;;;;5006398;28;20497;-61
2022/03/14 10:49:43;;;;;;;22.63;2.03;;;39.70;1.00;;;;;;4998897;28;20475;-61
2022/03/14 10:52:13;;;;;;;24.00;2.10;;;37.80;1.00;;;;;;4997668;28;20995;-61
2022/03/14 10:54:42;;;;;;;23.87;2.20;;;35.40;1.00;;;;;;4995800;28;20468;-62
2022/03/14 10:57:14;;;;;;;24.17;3.10;;;34.40;1.00;;;;;;5001906;28;20479;-64
2022/03/14 10:59:42;;;;;;;24.80;4.17;;;34.70;1.00;;;;;;4997337;28;20963;-60
2022/03/14 11:02:10;;;;;;;23.77;2.27;;;36.00;1.00;;;;;;5001136;28;20475;-62
2022/03/14 11:04:41;;;;;;;24.70;2.00;;;36.80;1.00;;;;;;5008324;28;20498;-60
2022/03/14 11:07:08;;;;;;;23.50;2.20;;;38.00;1.00;;;;;;5008482;28;20925;-59
2022/03/14 11:09:44;;;;;;;23.20;1.90;;;38.90;1.00;;;;;;5011090;28;20472;-60
2022/03/14 11:12:13;;;;;;;23.17;2.07;;;39.30;1.00;;;;;;5006952;28;20461;-61
2022/03/14 11:14:40;;;;;;;23.07;2.20;;;39.40;1.00;;;;;;5009637;28;20463;-61
2022/03/14 11:17:26;;;;;;;26.30;2.10;;;39.40;1.00;;;;;;5003987;28;20483;-60
2022/03/14 11:19:54;;;;;;;23.00;2.43;;;39.40;1.00;;;;;;4983776;28;20453;-61
2022/03/14 11:22:22;;;;;;;23.87;2.20;;;39.20;1.00;;;;;;4978035;28;20464;-61
2022/03/14 11:24:52;;;;;;;25.70;2.00;;;38.70;1.00;;;;;;5005194;28;20484;-61
2022/03/14 11:27:21;;;;;;;22.93;1.80;;;38.70;1.00;;;;;;5010874;28;20499;-61
2022/03/14 11:29:50;;;;;;;23.60;1.87;;;37.80;1.00;;;;;;5005888;28;20474;-62
2022/03/14 11:32:18;;;;;;;24.17;3.13;;;37.00;1.00;;;;;;5005244;28;20488;-61
2022/03/14 11:34:46;;;;;;;23.87;2.57;;;36.20;1.00;;;;;;5003180;28;20463;-61
2022/03/14 11:37:14;;;;;;;24.67;2.17;;;36.10;1.00;;;;;;5003103;28;20489;-61
2022/03/14 11:39:41;;;;;;;23.80;1.90;;;35.70;1.00;;;;;;5010824;28;20467;-62
2022/03/14 11:42:11;;;;;;;24.07;2.70;;;35.30;1.00;;;;;;5001494;28;20468;-61
2022/03/14 11:44:39;;;;;;;23.90;2.13;;;34.60;1.00;;;;;;5003463;28;20532;-61
2022/03/14 11:47:09;;;;;;;24.67;1.97;;;33.10;1.00;;;;;;5010987;28;21040;-62
2022/03/14 11:49:37;;;;;;;24.93;2.00;;;32.30;1.00;;;;;;5007602;28;20463;-61
2022/03/14 11:52:10;;;;;;;25.73;2.70;;;31.60;1.00;;;;;;4996162;28;20458;-62
2022/03/14 11:54:38;;;;;;;25.60;2.30;;;31.30;1.00;;;;;;5001836;28;20456;-60
2022/03/14 11:57:06;;;;;;;25.20;2.47;;;31.20;1.00;;;;;;5008742;28;20568;-62
2022/03/14 11:59:36;;;;;;;24.87;1.87;;;31.30;1.00;;;;;;5000241;28;20956;-62
2022/03/14 12:02:05;;;;;;;25.27;3.27;;;31.50;1.00;;;;;;5007593;28;20487;-61
2022/03/14 12:04:35;;;;;;;27.37;2.30;;;31.20;1.00;;;;;;5005046;28;20460;-61
2022/03/14 12:07:17;;;;;;;27.27;2.30;;;30.00;1.00;;;;;;5013400;28;21093;-61
2022/03/14 12:09:49;;;;;;;25.93;2.10;;;29.20;1.00;;;;;;5013301;28;20552;-64
2022/03/14 12:12:27;;;;;;;26.77;3.63;;;28.50;1.00;;;;;;5002759;28;20467;-65
2022/03/14 12:14:56;;;;;;;26.10;2.63;;;27.60;1.00;;;;;;4997068;28;20452;-64
2022/03/14 12:17:28;;;;;;;26.23;2.17;;;26.80;1.00;;;;;;5001184;28;20482;-65
2022/03/14 12:19:58;;;;;;;26.17;2.23;;;26.10;1.00;;;;;;5006493;28;20481;-66
2022/03/14 12:22:40;;;;;;;28.07;3.30;;;25.40;1.00;;;;;;5010768;28;20460;-62
2022/03/14 12:25:08;;;;;;;27.37;2.90;;;24.80;1.00;;;;;;5005066;28;20483;-62
2022/03/14 12:27:37;;;;;;;26.80;2.20;;;24.30;1.00;;;;;;5009852;28;20574;-61
2022/03/14 12:30:08;;;;;;;27.47;2.70;;;23.80;1.00;;;;;;5012830;28;20467;-61
2022/03/14 12:32:37;;;;;;;29.70;4.10;;;23.40;1.00;;;;;;4997707;28;20498;-61
2022/03/14 12:35:10;;;;;;;27.70;4.23;;;23.00;1.00;;;;;;4995775;28;20460;-65
2022/03/14 12:37:43;;;;;;;26.90;2.40;;;22.60;1.00;;;;;;5002515;28;20948;-61
2022/03/14 12:40:28;;;;;;;32.57;3.67;;;22.30;1.00;;;;;;5002737;28;20991;-61
2022/03/14 12:43:09;;;;;;;28.70;3.60;;;22.20;1.00;;;;;;4988643;28;20467;-64
2022/03/14 12:45:39;;;;;;;28.40;4.47;;;22.00;1.00;;;;;;4993559;28;20464;-60